createdAt,value
2023-05-25T00:02:05.282Z,66.91
2023-05-25T00:04:52.276Z,66.50
2023-05-25T00:07:40.227Z,66.25
2023-05-25T00:10:26.037Z,65.93
2023-05-25T00:13:12.411Z,66.11
2023-05-25T00:15:59.441Z,65.96
2023-05-25T00:18:48.569Z,65.87
2023-05-25T00:21:38.634Z,65.68
2023-05-25T00:24:24.725Z,65.36
2023-05-25T00:27:10.747Z,65.60
2023-05-25T00:29:57.789Z,65.56
2023-05-25T00:32:43.846Z,65.75
2023-05-25T00:35:30.670Z,65.35
2023-05-25T00:38:20.078Z,65.31
2023-05-25T00:41:07.115Z,65.03
2023-05-25T00:43:53.298Z,64.64
2023-05-25T00:46:39.964Z,65.10
2023-05-25T00:49:26.168Z,64.72
2023-05-25T00:52:16.394Z,64.68
2023-05-25T00:55:04.230Z,64.29
2023-05-25T00:57:52.672Z,64.80
2023-05-25T01:00:42.812Z,64.61
2023-05-25T01:03:36.642Z,65.13
2023-05-25T01:06:23.694Z,65.38
2023-05-25T01:09:12.721Z,65.58
2023-05-25T01:12:01.419Z,65.57
2023-05-25T01:14:49.833Z,65.52
2023-05-25T01:17:38.301Z,65.35
2023-05-25T01:20:28.468Z,65.57
2023-05-25T01:23:17.702Z,65.91
2023-05-25T01:26:09.599Z,66.33
2023-05-25T01:28:56.000Z,66.43
2023-05-25T01:31:43.557Z,66.20
2023-05-25T01:34:31.258Z,66.09
2023-05-25T01:37:20.862Z,66.00
2023-05-25T01:40:08.326Z,65.74
2023-05-25T01:42:54.517Z,65.70
2023-05-25T01:45:40.904Z,65.66
2023-05-25T01:48:41.194Z,65.74
2023-05-25T01:51:36.831Z,65.47
2023-05-25T01:54:39.433Z,64.97
2023-05-25T01:57:27.698Z,65.22
2023-05-25T02:00:14.697Z,65.09
2023-05-25T02:03:01.968Z,65.62
2023-05-25T02:05:47.948Z,66.55
2023-05-25T02:08:33.643Z,67.19
2023-05-25T02:11:20.578Z,67.61
2023-05-25T02:14:06.772Z,67.29
2023-05-25T02:16:53.000Z,66.88
2023-05-25T02:19:39.621Z,66.92
2023-05-25T02:22:26.021Z,66.59
2023-05-25T02:25:13.462Z,66.88
2023-05-25T02:28:00.494Z,66.35
2023-05-25T02:30:46.710Z,66.26
2023-05-25T02:33:33.161Z,66.31
2023-05-25T02:36:20.390Z,66.45
2023-05-25T02:39:07.506Z,66.69
2023-05-25T02:41:53.855Z,66.71
2023-05-25T02:44:40.852Z,66.50
2023-05-25T02:47:27.028Z,66.21
2023-05-25T02:50:14.218Z,66.24
2023-05-25T02:53:04.771Z,66.38
2023-05-25T02:55:51.071Z,66.50
2023-05-25T02:58:42.750Z,66.96
2023-05-25T03:01:35.050Z,66.91
2023-05-25T03:04:22.107Z,67.09
2023-05-25T03:07:08.198Z,66.91
2023-05-25T03:09:54.887Z,67.19
2023-05-25T03:12:42.075Z,67.38
2023-05-25T03:15:28.754Z,67.33
2023-05-25T03:18:15.183Z,67.48
2023-05-25T03:21:02.978Z,67.35
2023-05-25T03:23:50.666Z,67.09
2023-05-25T03:26:37.070Z,67.73
2023-05-25T03:29:27.004Z,68.23
2023-05-25T03:32:13.752Z,67.64
2023-05-25T03:34:59.785Z,67.57
2023-05-25T03:37:46.986Z,67.69
2023-05-25T03:40:35.635Z,68.14
2023-05-25T03:43:21.901Z,68.00
2023-05-25T03:46:10.326Z,67.93
2023-05-25T03:48:56.670Z,68.04
2023-05-25T03:51:43.173Z,67.54
2023-05-25T03:54:32.015Z,67.81
2023-05-25T03:57:18.166Z,67.78
2023-05-25T04:00:05.810Z,67.73
2023-05-25T04:02:59.091Z,67.56
2023-05-25T04:05:48.116Z,68.38
2023-05-25T04:08:34.882Z,68.71
2023-05-25T04:11:23.109Z,68.77
2023-05-25T04:14:08.846Z,68.54
2023-05-25T04:16:59.415Z,68.47
2023-05-25T04:19:45.563Z,68.63
2023-05-25T04:22:33.872Z,68.63
2023-05-25T04:25:20.311Z,68.86
2023-05-25T04:28:08.917Z,68.63
2023-05-25T04:31:15.621Z,68.93
2023-05-25T04:34:10.008Z,68.83
2023-05-25T04:37:05.589Z,69.03
2023-05-25T04:39:53.084Z,68.62
2023-05-25T04:42:40.763Z,68.58
2023-05-25T04:45:30.058Z,68.55
2023-05-25T04:48:16.591Z,68.75
2023-05-25T04:51:04.944Z,68.51
2023-05-25T04:53:53.396Z,69.01
2023-05-25T04:56:40.316Z,69.02
2023-05-25T04:59:26.417Z,69.25
2023-05-25T05:02:18.740Z,69.39
2023-05-25T05:05:05.227Z,69.68
2023-05-25T05:07:52.283Z,70.00
2023-05-25T05:10:38.618Z,70.13
2023-05-25T05:13:26.497Z,70.28
2023-05-25T05:16:13.491Z,70.17
2023-05-25T05:19:00.814Z,70.38
2023-05-25T05:21:47.166Z,70.61
2023-05-25T05:24:35.773Z,70.78
2023-05-25T05:27:22.876Z,71.00
2023-05-25T05:30:17.062Z,71.33
2023-05-25T05:33:03.463Z,71.97
2023-05-25T05:35:58.035Z,72.54
2023-05-25T05:38:49.841Z,72.40
2023-05-25T05:41:36.329Z,72.40
2023-05-25T05:44:25.264Z,72.63
2023-05-25T05:47:13.478Z,72.60
2023-05-25T05:49:59.668Z,72.35
2023-05-25T05:52:46.019Z,72.24
2023-05-25T05:55:33.170Z,72.19
2023-05-25T05:58:19.174Z,72.12
2023-05-25T06:01:06.850Z,71.62
2023-05-25T06:03:54.558Z,71.75
2023-05-25T06:06:42.233Z,71.39
2023-05-25T06:09:28.368Z,71.39
2023-05-25T06:12:19.060Z,70.88
2023-05-25T06:15:06.898Z,70.70
2023-05-25T06:17:56.388Z,70.99
2023-05-25T06:20:42.710Z,70.19
2023-05-25T06:23:29.451Z,70.35
2023-05-25T06:26:16.330Z,69.05
2023-05-25T06:29:02.766Z,68.02
2023-05-25T06:31:49.883Z,67.87
2023-05-25T06:34:39.035Z,67.44
2023-05-25T06:37:27.593Z,65.83
2023-05-25T06:40:16.232Z,64.54
2023-05-25T06:43:02.050Z,63.35
2023-05-25T06:46:10.546Z,63.15
2023-05-25T06:48:59.308Z,61.88
2023-05-25T06:51:45.556Z,61.27
2023-05-25T06:54:33.352Z,60.65
2023-05-25T06:57:19.425Z,59.22
2023-05-25T07:00:08.281Z,58.00
2023-05-25T07:02:54.746Z,57.78
2023-05-25T07:05:42.145Z,58.12
2023-05-25T07:08:28.074Z,57.66
2023-05-25T07:11:15.567Z,56.55
2023-05-25T07:14:01.826Z,54.98
2023-05-25T07:16:49.407Z,54.10
2023-05-25T07:19:35.584Z,53.91
2023-05-25T07:22:24.076Z,52.33
2023-05-25T07:25:09.940Z,52.39
2023-05-25T07:27:56.449Z,50.25
2023-05-25T07:30:42.354Z,50.79
2023-05-25T07:33:28.813Z,51.20
2023-05-25T07:36:15.110Z,49.82
2023-05-25T07:39:01.715Z,49.87
2023-05-25T07:41:47.708Z,48.81
2023-05-25T07:44:33.558Z,48.19
2023-05-25T07:47:20.684Z,47.69
2023-05-25T07:50:07.500Z,48.52
2023-05-25T07:52:54.761Z,48.19
2023-05-25T07:55:41.074Z,46.15
2023-05-25T07:58:27.281Z,46.25
2023-05-25T08:01:14.693Z,46.07
2023-05-25T08:04:01.185Z,46.09
2023-05-25T08:06:47.240Z,45.87
2023-05-25T08:09:33.363Z,43.94
2023-05-25T08:15:10.424Z,45.03
2023-05-25T08:17:56.901Z,42.86
2023-05-25T08:20:43.810Z,43.29
2023-05-25T08:23:29.879Z,43.10
2023-05-25T08:29:06.177Z,43.43
2023-05-25T08:31:53.038Z,41.68
2023-05-25T08:34:40.486Z,40.99
2023-05-25T08:37:26.584Z,42.68
2023-05-25T08:40:16.961Z,43.25
2023-05-25T08:43:03.017Z,43.17
2023-05-25T08:45:51.319Z,42.13
2023-05-25T08:48:42.268Z,40.64
2023-05-25T08:51:33.005Z,41.55
2023-05-25T08:54:20.325Z,40.06
2023-05-25T08:57:13.924Z,40.68
2023-05-25T09:00:11.352Z,37.92
2023-05-25T09:03:18.352Z,38.90
2023-05-25T09:06:06.244Z,39.47
2023-05-25T09:08:52.164Z,39.53
2023-05-25T09:11:42.804Z,39.83
2023-05-25T09:14:31.154Z,39.14
2023-05-25T09:17:18.845Z,39.22
2023-05-25T09:20:05.327Z,38.92
2023-05-25T09:22:52.216Z,38.92
2023-05-25T09:25:38.830Z,38.38
2023-05-25T09:28:27.574Z,38.02
2023-05-25T09:31:17.880Z,37.29
2023-05-25T09:34:12.070Z,37.43
2023-05-25T09:36:59.195Z,37.25
2023-05-25T09:39:45.761Z,37.18
2023-05-25T09:42:34.427Z,37.31
2023-05-25T09:45:23.278Z,38.18
2023-05-25T09:48:09.946Z,37.37
2023-05-25T09:50:56.923Z,37.85
2023-05-25T09:53:43.437Z,37.01
2023-05-25T09:56:32.012Z,36.90
2023-05-25T09:59:18.628Z,37.51
2023-05-25T10:02:04.629Z,37.28
2023-05-25T10:04:51.182Z,36.17
2023-05-25T10:07:41.872Z,36.43
2023-05-25T10:10:29.316Z,37.40
2023-05-25T10:13:20.859Z,38.41
2023-05-25T10:16:13.294Z,37.52
2023-05-25T10:19:08.913Z,37.12
2023-05-25T10:22:18.458Z,37.82
2023-05-25T10:25:23.569Z,36.86
2023-05-25T10:28:29.019Z,36.33
2023-05-25T10:31:17.766Z,37.11
2023-05-25T10:34:04.160Z,36.88
2023-05-25T10:36:51.876Z,36.47
2023-05-25T10:39:39.992Z,36.22
2023-05-25T10:42:30.002Z,38.55
2023-05-25T10:45:16.910Z,37.73
2023-05-25T10:48:03.428Z,36.77
2023-05-25T10:50:50.935Z,37.52
2023-05-25T10:53:38.940Z,37.15
2023-05-25T10:56:26.149Z,37.45
2023-05-25T10:59:13.833Z,38.41
2023-05-25T11:02:07.667Z,35.63
2023-05-25T11:05:32.463Z,35.24
2023-05-25T11:08:23.592Z,37.51
2023-05-25T11:11:10.755Z,37.62
2023-05-25T11:13:56.812Z,37.65
2023-05-25T11:16:44.152Z,37.12
2023-05-25T11:19:43.737Z,36.12
2023-05-25T11:22:38.294Z,36.27
2023-05-25T11:25:42.453Z,37.15
2023-05-25T11:28:32.898Z,36.19
2023-05-25T11:31:37.855Z,37.55
2023-05-25T11:34:28.210Z,38.56
2023-05-25T11:37:21.340Z,38.25
2023-05-25T11:40:09.663Z,38.49
2023-05-25T11:42:57.975Z,38.53
2023-05-25T11:45:44.730Z,39.08
2023-05-25T11:48:30.698Z,38.75
2023-05-25T11:51:18.331Z,38.20
2023-05-25T11:54:04.479Z,36.51
2023-05-25T11:56:51.890Z,37.14
2023-05-25T11:59:39.616Z,37.36
2023-05-25T12:02:26.735Z,37.42
2023-05-25T12:05:14.517Z,38.01
2023-05-25T12:08:01.217Z,38.33
2023-05-25T12:10:52.162Z,36.94
2023-05-25T12:13:41.250Z,37.12
2023-05-25T12:16:27.698Z,36.25
2023-05-25T12:19:17.658Z,37.11
2023-05-25T12:22:04.369Z,36.71
2023-05-25T12:24:51.611Z,36.76
2023-05-25T12:27:38.490Z,37.16
2023-05-25T12:30:29.288Z,36.25
2023-05-25T12:33:16.721Z,36.75
2023-05-25T12:36:04.880Z,35.61
2023-05-25T12:39:00.164Z,36.80
2023-05-25T12:41:54.283Z,37.23
2023-05-25T12:44:42.733Z,37.22
2023-05-25T12:47:31.099Z,36.38
2023-05-25T12:50:17.960Z,38.02
2023-05-25T12:53:07.641Z,38.31
2023-05-25T12:56:04.460Z,38.02
2023-05-25T12:58:53.133Z,39.71
2023-05-25T13:01:40.800Z,40.62
2023-05-25T13:04:28.456Z,41.40
2023-05-25T13:07:16.015Z,40.34
2023-05-25T13:10:02.688Z,40.15
2023-05-25T13:12:49.896Z,40.18
2023-05-25T13:15:37.061Z,41.18
2023-05-25T13:18:23.061Z,41.44
2023-05-25T13:21:10.697Z,40.61
2023-05-25T13:23:57.125Z,41.03
2023-05-25T13:26:46.959Z,40.80
2023-05-25T13:29:34.562Z,40.66
2023-05-25T13:32:21.219Z,40.71
2023-05-25T13:35:08.055Z,40.23
2023-05-25T13:37:54.877Z,40.70
2023-05-25T13:40:41.074Z,40.83
2023-05-25T13:43:28.623Z,40.91
2023-05-25T13:46:25.822Z,40.10
2023-05-25T13:49:20.800Z,40.88
2023-05-25T13:52:07.174Z,41.41
2023-05-25T13:54:54.204Z,41.97
2023-05-25T13:57:40.389Z,41.71
2023-05-25T14:00:28.316Z,42.04
2023-05-25T14:03:18.097Z,41.08
2023-05-25T14:06:05.964Z,41.77
2023-05-25T14:08:52.244Z,42.01
2023-05-25T14:11:39.791Z,42.50
2023-05-25T14:14:32.143Z,42.33
2023-05-25T14:17:20.051Z,41.87
2023-05-25T14:20:07.316Z,42.22
2023-05-25T14:22:54.044Z,42.53
2023-05-25T14:25:40.016Z,42.79
2023-05-25T14:28:26.605Z,42.63
2023-05-25T14:31:13.894Z,42.41
2023-05-25T14:34:00.484Z,42.79
2023-05-25T14:36:46.745Z,42.94
2023-05-25T14:39:33.557Z,42.90
2023-05-25T14:42:20.025Z,43.02
2023-05-25T14:45:10.688Z,42.37
2023-05-25T14:48:11.872Z,43.57
2023-05-25T14:51:04.184Z,43.35
2023-05-25T14:53:54.530Z,43.44
2023-05-25T14:56:40.919Z,43.80
2023-05-25T14:59:27.546Z,43.22
2023-05-25T15:02:14.349Z,43.82
2023-05-25T15:05:00.517Z,44.17
2023-05-25T15:07:47.173Z,45.09
2023-05-25T15:10:38.972Z,44.37
2023-05-25T15:13:25.807Z,44.06
2023-05-25T15:16:14.009Z,44.51
2023-05-25T15:19:00.788Z,43.89
2023-05-25T15:21:46.811Z,43.94
2023-05-25T15:24:35.026Z,44.05
2023-05-25T15:27:21.549Z,44.32
2023-05-25T15:30:13.032Z,44.83
2023-05-25T15:32:58.998Z,44.91
2023-05-25T15:35:51.043Z,44.93
2023-05-25T15:38:37.113Z,44.80
2023-05-25T15:41:23.905Z,45.02
2023-05-25T15:44:12.853Z,45.39
2023-05-25T15:46:59.140Z,44.26
2023-05-25T15:49:45.228Z,44.01
2023-05-25T15:52:39.175Z,45.14
2023-05-25T15:55:26.199Z,44.90
2023-05-25T15:58:12.370Z,44.99
2023-05-25T16:00:58.878Z,44.58
2023-05-25T16:03:45.051Z,44.68
2023-05-25T16:06:31.844Z,44.43
2023-05-25T16:09:18.121Z,45.32
2023-05-25T16:12:04.976Z,44.68
2023-05-25T16:14:51.144Z,44.92
2023-05-25T16:17:38.251Z,45.10
2023-05-25T16:20:24.777Z,44.83
2023-05-25T16:23:11.090Z,45.31
2023-05-25T16:25:58.384Z,45.06
2023-05-25T16:28:44.612Z,45.36
2023-05-25T16:31:31.637Z,45.62
2023-05-25T16:34:17.748Z,45.47
2023-05-25T16:37:04.969Z,45.11
2023-05-25T16:39:51.154Z,44.79
2023-05-25T16:42:37.038Z,45.25
2023-05-25T16:45:23.048Z,45.09
2023-05-25T16:48:10.174Z,45.15
2023-05-25T16:50:57.476Z,45.10
2023-05-25T16:53:43.695Z,45.36
2023-05-25T16:56:30.469Z,45.14
2023-05-25T16:59:16.337Z,45.07
2023-05-25T17:02:03.396Z,45.10
2023-05-25T17:04:49.523Z,45.18
2023-05-25T17:07:36.382Z,45.54
2023-05-25T17:10:22.359Z,45.11
2023-05-25T17:13:09.350Z,45.28
2023-05-25T17:15:55.924Z,45.95
2023-05-25T17:18:42.851Z,45.49
2023-05-25T17:21:28.875Z,45.82
2023-05-25T17:24:14.665Z,45.72
2023-05-25T17:27:02.327Z,45.91
2023-05-25T17:29:48.223Z,45.44
2023-05-25T17:32:35.302Z,45.97
2023-05-25T17:35:21.415Z,46.27
2023-05-25T17:38:07.649Z,46.28
2023-05-25T17:40:53.677Z,45.88
2023-05-25T17:43:40.919Z,46.17
2023-05-25T17:46:31.482Z,46.13
2023-05-25T17:49:18.746Z,46.27
2023-05-25T17:52:05.061Z,46.44
2023-05-25T17:54:53.893Z,46.45
2023-05-25T17:57:40.223Z,46.57
2023-05-25T18:00:31.076Z,46.73
2023-05-25T18:03:21.282Z,46.88
2023-05-25T18:06:08.361Z,47.05
2023-05-25T18:08:55.681Z,47.14
2023-05-25T18:11:41.897Z,47.33
2023-05-25T18:14:27.941Z,46.93
2023-05-25T18:17:14.357Z,46.96
2023-05-25T18:20:01.377Z,47.14
2023-05-25T18:22:47.575Z,47.34
2023-05-25T18:25:34.080Z,47.23
2023-05-25T18:28:20.804Z,47.05
2023-05-25T18:31:09.004Z,47.35
2023-05-25T18:33:55.926Z,47.52
2023-05-25T18:36:41.950Z,47.52
2023-05-25T18:39:28.333Z,47.55
2023-05-25T18:42:14.288Z,47.82
2023-05-25T18:45:01.707Z,47.84
2023-05-25T18:47:48.470Z,47.93
2023-05-25T18:50:37.666Z,48.03
2023-05-25T18:53:23.765Z,48.22
2023-05-25T18:56:09.535Z,47.89
2023-05-25T18:58:57.434Z,48.21
2023-05-25T19:01:43.640Z,48.37
2023-05-25T19:04:30.506Z,48.49
2023-05-25T19:07:16.703Z,48.67
2023-05-25T19:10:02.786Z,48.99
2023-05-25T19:12:48.935Z,48.98
2023-05-25T19:15:36.630Z,49.37
2023-05-25T19:18:22.860Z,49.17
2023-05-25T19:21:10.075Z,49.16
2023-05-25T19:23:57.997Z,49.18
2023-05-25T19:26:46.731Z,49.49
2023-05-25T19:29:34.023Z,49.99
2023-05-25T19:32:19.936Z,49.96
2023-05-25T19:35:06.614Z,50.26
2023-05-25T19:37:53.770Z,50.11
2023-05-25T19:40:39.795Z,50.11
2023-05-25T19:43:25.828Z,50.38
2023-05-25T19:46:12.320Z,50.35
2023-05-25T19:48:58.939Z,50.64
2023-05-25T19:51:44.818Z,50.97
2023-05-25T19:54:31.900Z,51.06
2023-05-25T19:57:17.933Z,51.20
2023-05-25T20:00:09.213Z,51.28
2023-05-25T20:03:00.669Z,51.57
2023-05-25T20:05:47.915Z,51.66
2023-05-25T20:08:34.090Z,51.81
2023-05-25T20:11:20.929Z,51.94
2023-05-25T20:14:07.738Z,52.10
2023-05-25T20:16:57.118Z,52.18
2023-05-25T20:19:43.691Z,52.21
2023-05-25T20:22:30.490Z,52.50
2023-05-25T20:25:16.771Z,52.82
2023-05-25T20:28:03.565Z,52.98
2023-05-25T20:30:49.692Z,53.09
2023-05-25T20:33:35.846Z,53.26
2023-05-25T20:36:21.829Z,53.42
2023-05-25T20:39:09.804Z,53.50
2023-05-25T20:41:56.154Z,53.63
2023-05-25T20:44:42.546Z,53.86
2023-05-25T20:47:28.355Z,53.97
2023-05-25T20:50:16.327Z,53.66
2023-05-25T20:53:02.390Z,53.97
2023-05-25T20:55:48.798Z,54.11
2023-05-25T20:58:37.451Z,54.05
2023-05-25T21:01:23.795Z,54.33
2023-05-25T21:04:10.584Z,54.34
2023-05-25T21:06:57.729Z,54.53
2023-05-25T21:09:43.689Z,54.90
2023-05-25T21:12:30.653Z,54.91
2023-05-25T21:15:16.834Z,54.87
2023-05-25T21:18:06.244Z,54.87
2023-05-25T21:20:52.446Z,54.88
2023-05-25T21:23:39.157Z,54.94
2023-05-25T21:26:25.085Z,55.02
2023-05-25T21:29:11.797Z,55.19
2023-05-25T21:31:59.672Z,55.17
2023-05-25T21:34:47.172Z,55.28
2023-05-25T21:37:33.580Z,55.52
2023-05-25T21:40:21.076Z,55.49
2023-05-25T21:43:09.207Z,55.58
2023-05-25T21:45:56.274Z,55.52
2023-05-25T21:48:42.479Z,55.54
2023-05-25T21:51:33.617Z,55.70
2023-05-25T21:54:19.553Z,55.65
2023-05-25T21:57:06.081Z,55.68
2023-05-25T21:59:51.854Z,55.88
2023-05-25T22:02:39.015Z,55.81
2023-05-25T22:05:26.020Z,56.08
2023-05-25T22:08:13.513Z,56.20
2023-05-25T22:11:01.368Z,56.31
2023-05-25T22:13:48.433Z,56.42
2023-05-25T22:16:35.490Z,56.39
2023-05-25T22:19:22.567Z,56.57
2023-05-25T22:22:09.560Z,56.51
2023-05-25T22:24:57.180Z,56.54
2023-05-25T22:27:43.826Z,56.57
2023-05-25T22:30:32.705Z,56.47
2023-05-25T22:33:19.779Z,56.74
2023-05-25T22:36:08.413Z,56.78
2023-05-25T22:38:56.880Z,56.78
2023-05-25T22:41:46.509Z,56.92
2023-05-25T22:44:39.257Z,57.05
2023-05-25T22:47:27.015Z,57.38
2023-05-25T22:50:14.699Z,57.66
2023-05-25T22:53:03.998Z,57.93
2023-05-25T22:55:52.116Z,58.54
2023-05-25T22:58:40.589Z,58.68
2023-05-25T23:01:27.009Z,58.67
2023-05-25T23:04:14.980Z,58.82
2023-05-25T23:07:02.347Z,58.76
2023-05-25T23:09:49.152Z,58.52
2023-05-25T23:12:36.658Z,58.74
2023-05-25T23:15:25.568Z,58.69
2023-05-25T23:18:12.230Z,58.90
2023-05-25T23:20:59.883Z,58.92
2023-05-25T23:23:46.321Z,58.93
2023-05-25T23:26:33.945Z,58.78
2023-05-25T23:29:21.280Z,58.68
2023-05-25T23:32:08.710Z,58.94
2023-05-25T23:34:56.965Z,59.03
2023-05-25T23:37:45.113Z,59.33
2023-05-25T23:40:31.783Z,59.31
2023-05-25T23:43:19.597Z,59.45
2023-05-25T23:46:06.595Z,59.60
2023-05-25T23:48:54.481Z,59.63
2023-05-25T23:51:41.707Z,59.38
2023-05-25T23:54:29.641Z,59.04
2023-05-25T23:57:16.304Z,59.17
